Terminal Aerodrome Forecast
Issued by NWS

Home | Current Version | Previous Version | Text Only | Print | Product List | Glossary On
Versions: 1 2 3 4 5 6 7 8 9 10 11 12 13 14 15
000
FTUS46 KLOX 291613 AAA
TAFBUR
TAF AMD
KBUR 291613Z 2916/3012 VRB03KT 5SM HZ FEW015
     FM291730 VRB03KT P6SM SKC
     FM291900 17010KT P6SM SKC
     FM300300 VRB03KT P6SM SKC
     FM301000 VRB03KT 5SM BR OVC008=

USA.gov is the U.S. government's official web portal to all federal, state and local government web resources and services.